Time;durP1;ratioP1;P1;durP2;ratioP2;P2;SDS_P1;SDS_P2;PMS_P1;PMS_P2;Temp;Humidity;BMP_temperature;BMP_pressure;BME280_temperature;BME280_humidity;BME280_pressure;Samples;Min_cycle;Max_cycle;Signal;HPM_P1;HPM_P2
2021/08/29 00:00:43;;;;;;;14.63;4.32;;;;;;;15.35;87.16;102400.09;6177925;23;20005;-81
2021/08/29 00:03:09;;;;;;;13.70;4.03;;;;;;;15.37;87.02;102398.38;6181627;23;20100;-79
2021/08/29 00:05:34;;;;;;;10.75;3.78;;;;;;;15.40;86.66;102393.13;6154995;23;20005;-81
2021/08/29 00:08:00;;;;;;;8.75;4.32;;;;;;;15.41;86.79;102386.06;6181733;23;20001;-82
2021/08/29 00:10:25;;;;;;;14.90;4.22;;;;;;;15.45;86.38;102387.91;6182368;23;20001;-82
2021/08/29 00:12:51;;;;;;;11.63;3.70;;;;;;;15.43;86.38;102387.00;6182025;23;20020;-81
2021/08/29 00:15:17;;;;;;;14.48;3.63;;;;;;;15.46;86.09;102395.94;6181437;23;20016;-82
2021/08/29 00:17:42;;;;;;;14.27;4.10;;;;;;;15.45;86.41;102393.22;6180381;23;20013;-79
2021/08/29 00:20:28;;;;;;;13.32;4.13;;;;;;;15.41;86.63;102397.59;6181153;23;20008;-79
2021/08/29 00:22:53;;;;;;;13.23;4.20;;;;;;;15.38;86.86;102392.19;6180060;23;20343;-81
2021/08/29 00:25:19;;;;;;;11.10;3.75;;;;;;;15.37;86.64;102390.41;6181792;23;20092;-81
2021/08/29 00:27:44;;;;;;;10.82;3.60;;;;;;;15.34;86.36;102388.59;6180424;23;20005;-82
2021/08/29 00:30:30;;;;;;;14.07;4.35;;;;;;;15.33;86.61;102389.44;6180543;23;20314;-82
2021/08/29 00:32:55;;;;;;;12.45;3.88;;;;;;;15.31;86.70;102392.94;6182014;23;20009;-82
2021/08/29 00:35:21;;;;;;;14.85;4.15;;;;;;;15.32;86.33;102392.94;6180506;23;20460;-80
2021/08/29 00:37:47;;;;;;;7.85;3.70;;;;;;;15.36;86.13;102388.63;6180667;23;20395;-82
2021/08/29 00:40:15;;;;;;;12.15;3.80;;;;;;;15.34;85.82;102390.31;6180565;23;20012;-79
2021/08/29 00:43:01;;;;;;;14.07;3.95;;;;;;;15.35;85.56;102386.81;6181702;23;20024;-79
2021/08/29 00:45:26;;;;;;;8.63;3.65;;;;;;;15.37;84.77;102381.53;6181013;23;20020;-80
2021/08/29 00:47:52;;;;;;;7.25;2.95;;;;;;;15.42;83.75;102380.78;6180161;23;20009;-83
2021/08/29 00:50:18;;;;;;;6.32;3.33;;;;;;;15.44;83.15;102375.53;6181262;23;20036;-80
2021/08/29 00:52:43;;;;;;;11.93;3.47;;;;;;;15.46;82.85;102377.34;6180064;23;20011;-80
2021/08/29 00:55:30;;;;;;;10.00;3.55;;;;;;;15.43;82.71;102377.28;6153993;23;20516;-81
2021/08/29 00:57:55;;;;;;;11.20;3.30;;;;;;;15.38;82.48;102376.28;6181365;23;20019;-82
2021/08/29 01:00:21;;;;;;;10.63;3.45;;;;;;;15.40;81.95;102374.56;6176033;23;20005;-80
2021/08/29 01:02:48;;;;;;;10.77;3.33;;;;;;;15.41;82.22;102383.41;6181646;23;20039;-76
2021/08/29 01:05:23;;;;;;;5.32;2.90;;;;;;;15.38;82.17;102376.28;6180008;23;20032;-82
2021/08/29 01:08:17;;;;;;;9.35;3.28;;;;;;;15.37;81.55;102374.50;6181693;23;20016;-79
2021/08/29 01:10:53;;;;;;;8.38;3.42;;;;;;;15.36;81.77;102370.06;6177014;23;20000;-81
2021/08/29 01:13:45;;;;;;;10.50;3.70;;;;;;;15.32;81.95;102362.91;6180110;23;20001;-82
2021/08/29 01:16:34;;;;;;;8.93;3.80;;;;;;;15.27;82.00;102367.19;6181392;23;20008;-80
2021/08/29 01:19:05;;;;;;;9.32;3.28;;;;;;;15.28;81.77;102369.00;6180497;23;20005;-78
2021/08/29 01:21:40;;;;;;;8.65;2.92;;;;;;;15.27;81.65;102367.19;6179440;23;20016;-80
2021/08/29 01:24:18;;;;;;;8.23;3.65;;;;;;;15.28;81.58;102367.22;6182105;23;20490;-83
2021/08/29 01:26:43;;;;;;;10.25;2.92;;;;;;;15.29;80.95;102368.16;6181470;23;20012;-77
2021/08/29 01:29:12;;;;;;;11.23;3.55;;;;;;;15.30;80.56;102356.66;6181522;23;20010;-80
2021/08/29 01:31:58;;;;;;;7.50;3.38;;;;;;;15.30;81.11;102356.66;6178697;23;20528;-80
2021/08/29 01:34:23;;;;;;;8.18;3.03;;;;;;;15.30;80.74;102357.56;6180742;23;20005;-78
2021/08/29 01:36:52;;;;;;;5.55;3.40;;;;;;;15.32;80.52;102360.25;6180674;23;20032;-79
2021/08/29 01:39:22;;;;;;;9.98;3.63;;;;;;;15.31;81.04;102363.75;6182505;23;20015;-81
2021/08/29 01:42:06;;;;;;;4.53;3.20;;;;;;;15.23;81.02;102355.63;6181079;23;20013;-82
2021/08/29 01:44:32;;;;;;;10.60;4.00;;;;;;;15.18;81.24;102363.50;6180974;23;20421;-81
2021/08/29 01:47:00;;;;;;;9.80;3.40;;;;;;;15.12;81.36;102363.34;6180261;23;20005;-79
2021/08/29 01:49:28;;;;;;;11.40;3.72;;;;;;;15.08;81.42;102371.19;6182189;23;20028;-81
2021/08/29 01:51:54;;;;;;;6.13;3.58;;;;;;;15.01;81.56;102364.88;6153603;23;20515;-84
2021/08/29 01:54:19;;;;;;;11.80;3.63;;;;;;;14.99;81.48;102366.59;6178588;23;20005;-79
2021/08/29 01:56:58;;;;;;;10.77;3.95;;;;;;;14.88;82.33;102369.00;6180675;23;20001;-81
2021/08/29 01:59:23;;;;;;;10.00;4.15;;;;;;;14.79;82.79;102364.38;6181274;23;20020;-83
2021/08/29 02:01:49;;;;;;;11.27;3.83;;;;;;;14.71;83.06;102365.94;6175905;23;20366;-76
2021/08/29 02:04:17;;;;;;;13.55;4.07;;;;;;;14.61;83.91;102369.19;6181864;23;20037;-77
2021/08/29 02:06:46;;;;;;;6.78;3.97;;;;;;;14.57;83.87;102372.63;6180522;23;20059;-82
2021/08/29 02:09:14;;;;;;;11.48;4.22;;;;;;;14.55;83.96;102369.94;6181242;23;20489;-79
2021/08/29 02:11:41;;;;;;;10.25;3.97;;;;;;;14.53;84.51;102373.41;6154975;23;20013;-81
2021/08/29 02:14:46;;;;;;;11.10;4.30;;;;;;;14.53;85.15;102378.69;6180199;23;20023;-80
2021/08/29 02:17:13;;;;;;;9.95;3.95;;;;;;;14.54;85.22;102377.84;6178051;23;20047;-78
2021/08/29 02:19:41;;;;;;;10.30;4.53;;;;;;;14.57;84.97;102377.91;6181155;23;20039;-80
2021/08/29 02:22:07;;;;;;;8.13;4.70;;;;;;;14.59;85.34;102377.09;6179091;23;20020;-78
2021/08/29 02:24:33;;;;;;;12.25;4.80;;;;;;;14.64;85.26;102379.91;6180810;23;20005;-77
2021/08/29 02:26:59;;;;;;;11.90;4.47;;;;;;;14.65;85.48;102385.25;6180761;23;20016;-82
2021/08/29 02:29:26;;;;;;;9.45;4.55;;;;;;;14.65;85.37;102379.94;6153714;23;20009;-77
2021/08/29 02:32:13;;;;;;;9.30;4.25;;;;;;;14.69;85.17;102372.97;6181178;23;20024;-78
2021/08/29 02:34:39;;;;;;;8.23;3.90;;;;;;;14.70;85.45;102372.09;6181120;23;20015;-79
2021/08/29 02:37:08;;;;;;;9.77;4.50;;;;;;;14.72;86.04;102382.72;6180713;23;20071;-77
2021/08/29 02:39:35;;;;;;;14.27;5.32;;;;;;;14.73;85.66;102379.22;6180649;23;20055;-79
2021/08/29 02:42:01;;;;;;;10.45;4.00;;;;;;;14.75;85.38;102380.16;6180640;23;20009;-79
2021/08/29 02:44:28;;;;;;;16.90;4.35;;;;;;;14.76;85.54;102374.91;6181513;23;20008;-81
2021/08/29 02:46:54;;;;;;;8.57;4.50;;;;;;;14.79;85.28;102374.97;6179973;23;20083;-80
2021/08/29 02:49:24;;;;;;;16.52;5.15;;;;;;;14.80;85.68;102370.59;6180899;23;20004;-78
2021/08/29 02:51:50;;;;;;;10.15;4.03;;;;;;;14.84;85.43;102369.78;6183211;23;20344;-79
2021/08/29 02:54:16;;;;;;;8.35;4.53;;;;;;;14.84;85.37;102369.78;6180238;23;20008;-80
2021/08/29 02:56:46;;;;;;;12.45;4.43;;;;;;;14.86;85.29;102367.19;6183713;23;20035;-79
2021/08/29 02:59:12;;;;;;;9.77;4.65;;;;;;;14.84;85.32;102365.38;6183245;23;20123;-81
2021/08/29 03:01:38;;;;;;;7.57;4.68;;;;;;;14.83;85.88;102363.59;6179158;23;20055;-78
2021/08/29 03:04:04;;;;;;;10.65;4.53;;;;;;;14.84;85.69;102357.44;6183570;23;20015;-82
2021/08/29 03:06:29;;;;;;;10.52;4.50;;;;;;;14.85;85.75;102363.63;6182857;23;20491;-80
2021/08/29 03:08:55;;;;;;;9.13;5.28;;;;;;;14.83;86.10;102360.03;6181844;23;20025;-83
2021/08/29 03:11:21;;;;;;;10.50;4.40;;;;;;;14.83;86.06;102358.28;6182450;23;20421;-78
2021/08/29 03:13:48;;;;;;;13.43;4.47;;;;;;;14.87;86.12;102361.91;6182172;23;20377;-79
2021/08/29 03:16:13;;;;;;;9.73;4.88;;;;;;;14.87;86.31;102358.34;6181765;23;20028;-80
2021/08/29 03:18:39;;;;;;;13.10;4.90;;;;;;;14.90;85.80;102356.66;6180994;23;20012;-82
2021/08/29 03:21:05;;;;;;;13.82;5.55;;;;;;;14.91;86.03;102355.81;6183284;23;20004;-79
2021/08/29 03:23:31;;;;;;;12.20;5.10;;;;;;;14.95;86.17;102359.44;6181682;23;20084;-77
2021/08/29 03:25:58;;;;;;;10.20;5.30;;;;;;;14.95;86.19;102354.13;6182018;23;20421;-77
2021/08/29 03:28:23;;;;;;;13.45;4.70;;;;;;;14.97;85.75;102353.28;6181170;23;20021;-78
2021/08/29 03:30:48;;;;;;;12.88;5.10;;;;;;;14.98;85.87;102351.56;6183489;23;20032;-79
2021/08/29 03:33:34;;;;;;;11.10;4.75;;;;;;;14.98;86.34;102359.50;6154470;23;20005;-82
2021/08/29 03:36:05;;;;;;;10.75;4.90;;;;;;;15.02;86.03;102348.09;6183362;23;20328;-81
2021/08/29 03:38:50;;;;;;;12.93;4.90;;;;;;;15.03;86.23;102352.56;6180541;23;20016;-77
2021/08/29 03:41:18;;;;;;;14.13;5.38;;;;;;;15.03;86.03;102349.91;6182006;23;20079;-78
2021/08/29 03:44:00;;;;;;;10.25;4.82;;;;;;;15.05;86.35;102350.81;6182976;23;20040;-80
2021/08/29 03:46:26;;;;;;;17.13;5.25;;;;;;;15.09;85.82;102343.84;6181074;23;20008;-81
2021/08/29 03:48:52;;;;;;;12.95;5.28;;;;;;;15.10;86.15;102343.88;6181243;23;20013;-81
2021/08/29 03:51:42;;;;;;;13.73;5.07;;;;;;;15.09;86.45;102342.06;6180905;23;20019;-78
2021/08/29 03:54:20;;;;;;;11.07;3.92;;;;;;;15.10;87.01;102338.56;6181516;23;20373;-82
2021/08/29 03:56:45;;;;;;;18.92;4.50;;;;;;;15.11;87.35;102350.97;6183440;23;20152;-78
2021/08/29 03:59:14;;;;;;;13.18;4.20;;;;;;;15.09;87.79;102342.06;6181347;23;20425;-82
2021/08/29 04:01:40;;;;;;;12.80;4.60;;;;;;;15.09;88.08;102342.06;6177812;23;20012;-77
2021/08/29 04:04:05;;;;;;;13.00;4.00;;;;;;;15.13;87.46;102338.63;6181023;23;20006;-79
2021/08/29 04:06:34;;;;;;;16.00;3.78;;;;;;;15.14;87.43;102335.13;6181437;23;20073;-80
2021/08/29 04:09:05;;;;;;;12.45;4.32;;;;;;;15.16;87.38;102327.19;6154133;23;20037;-81
2021/08/29 04:11:31;;;;;;;6.43;2.90;;;;;;;15.20;87.24;102333.47;6181389;23;20345;-81
2021/08/29 04:13:58;;;;;;;12.00;3.50;;;;;;;15.22;86.89;102326.41;6179242;23;20059;-76
2021/08/29 04:16:24;;;;;;;15.57;4.38;;;;;;;15.22;87.24;102329.06;6181903;23;20016;-81
2021/08/29 04:18:51;;;;;;;12.55;3.80;;;;;;;15.24;86.96;102324.72;6181646;23;20009;-81
2021/08/29 04:21:38;;;;;;;20.48;3.50;;;;;;;15.22;87.32;102327.34;6157205;23;20313;-80
2021/08/29 04:24:04;;;;;;;11.27;4.00;;;;;;;15.23;87.26;102322.91;6179393;23;20017;-80
2021/08/29 04:26:30;;;;;;;10.30;3.22;;;;;;;15.23;87.11;102322.91;6182724;23;20099;-81
2021/08/29 04:28:55;;;;;;;16.67;4.05;;;;;;;15.25;87.09;102326.50;6179769;23;20444;-79
2021/08/29 04:31:31;;;;;;;18.90;3.30;;;;;;;15.25;87.29;102315.91;6182655;23;20040;-80
2021/08/29 04:34:00;;;;;;;10.82;2.63;;;;;;;15.24;87.21;102319.41;6183121;23;20008;-81
2021/08/29 04:36:26;;;;;;;11.13;2.88;;;;;;;15.26;87.03;102317.66;6183040;23;20013;-80
2021/08/29 04:38:51;;;;;;;8.75;3.47;;;;;;;15.26;87.04;102315.94;6182173;23;20495;-78
2021/08/29 04:41:18;;;;;;;11.23;2.92;;;;;;;15.30;86.48;102322.16;6181622;23;20391;-78
2021/08/29 04:43:43;;;;;;;13.63;3.22;;;;;;;15.31;86.31;102308.06;6181943;23;20016;-83
2021/08/29 04:46:11;;;;;;;10.50;3.05;;;;;;;15.32;86.31;102317.81;6181033;23;20328;-79
2021/08/29 04:48:37;;;;;;;9.23;2.95;;;;;;;15.35;85.29;102317.88;6180317;23;20381;-82
2021/08/29 04:51:03;;;;;;;15.20;3.70;;;;;;;15.37;85.48;102317.88;6181430;23;20421;-80
2021/08/29 04:53:28;;;;;;;11.13;3.17;;;;;;;15.37;85.25;102321.47;6181425;23;20008;-79
2021/08/29 04:55:57;;;;;;;13.65;3.70;;;;;;;15.35;85.25;102328.47;6182334;23;20056;-78
2021/08/29 04:58:23;;;;;;;11.95;2.95;;;;;;;15.39;84.86;102327.66;6181036;23;20267;-77
2021/08/29 05:00:49;;;;;;;13.18;3.22;;;;;;;15.38;84.80;102323.22;6177462;23;20017;-78
2021/08/29 05:03:15;;;;;;;12.80;2.60;;;;;;;15.43;84.35;102321.56;6180364;23;20336;-82
2021/08/29 05:06:01;;;;;;;10.20;2.97;;;;;;;15.45;84.03;102324.25;6182766;23;20005;-82
2021/08/29 05:08:26;;;;;;;9.63;2.83;;;;;;;15.42;84.24;102314.47;6180357;23;20013;-79
2021/08/29 05:10:52;;;;;;;8.95;2.60;;;;;;;15.44;84.03;102320.72;6180784;23;20294;-81
2021/08/29 05:13:17;;;;;;;10.23;2.97;;;;;;;15.48;83.96;102311.06;6178478;23;20021;-78
2021/08/29 05:15:43;;;;;;;9.38;2.65;;;;;;;15.57;83.13;102318.28;6181237;23;20051;-86
2021/08/29 05:18:11;;;;;;;11.02;2.42;;;;;;;15.61;83.15;102313.09;6180537;23;20001;-77
2021/08/29 05:20:37;;;;;;;14.77;3.22;;;;;;;15.65;83.15;102320.25;6155133;23;20412;-80
2021/08/29 05:23:02;;;;;;;13.60;3.03;;;;;;;15.67;83.12;102314.97;6153979;23;20047;-81
2021/08/29 05:25:29;;;;;;;11.93;3.17;;;;;;;15.74;83.14;102322.16;6178675;23;20357;-79
2021/08/29 05:27:55;;;;;;;10.00;2.80;;;;;;;15.79;82.95;102315.19;6181915;23;20084;-78
2021/08/29 05:30:20;;;;;;;11.52;2.85;;;;;;;15.80;83.52;102329.38;6181332;23;20432;-81
2021/08/29 05:33:05;;;;;;;12.45;2.85;;;;;;;15.81;83.60;102329.41;6182067;23;20012;-77
2021/08/29 05:35:31;;;;;;;11.43;3.50;;;;;;;15.81;83.32;102318.78;6183157;23;20009;-83
2021/08/29 05:38:04;;;;;;;12.20;3.13;;;;;;;15.89;82.95;102320.72;6180896;23;20215;-77
2021/08/29 05:40:30;;;;;;;15.32;3.03;;;;;;;15.89;82.25;102320.72;6180084;23;20084;-80
2021/08/29 05:42:59;;;;;;;12.75;2.78;;;;;;;15.89;82.35;102326.91;6181423;23;20028;-79
2021/08/29 05:45:40;;;;;;;9.20;2.75;;;;;;;15.92;82.34;102323.41;6181261;23;20341;-79
2021/08/29 05:48:25;;;;;;;11.57;2.83;;;;;;;15.91;81.64;102329.59;6180105;23;20016;-80
2021/08/29 05:51:10;;;;;;;14.75;2.78;;;;;;;15.92;81.60;102329.59;6181149;23;19997;-82
2021/08/29 05:53:36;;;;;;;12.38;2.92;;;;;;;15.94;81.32;102327.88;6178561;23;20033;-77
2021/08/29 05:56:01;;;;;;;9.23;3.03;;;;;;;15.99;81.18;102325.31;6181876;23;20001;-78
2021/08/29 05:58:27;;;;;;;12.02;2.92;;;;;;;16.00;81.32;102324.44;6179349;23;20105;-80
2021/08/29 06:00:54;;;;;;;8.50;2.58;;;;;;;16.05;80.84;102322.78;6176993;23;20429;-79
2021/08/29 06:03:19;;;;;;;13.18;3.50;;;;;;;16.08;81.57;102319.28;6181614;23;20004;-81
2021/08/29 06:05:45;;;;;;;11.38;2.72;;;;;;;16.09;80.57;102316.66;6181960;23;20013;-82
2021/08/29 06:08:10;;;;;;;9.40;2.40;;;;;;;16.08;80.07;102314.84;6177580;23;20314;-79
2021/08/29 06:10:36;;;;;;;12.18;2.58;;;;;;;16.08;79.93;102317.50;6177428;23;19997;-80
2021/08/29 06:13:01;;;;;;;17.50;3.38;;;;;;;16.13;79.47;102314.94;6175946;23;20055;-79
2021/08/29 06:15:27;;;;;;;11.38;2.53;;;;;;;16.15;79.84;102313.19;6182924;23;20001;-81
2021/08/29 06:17:52;;;;;;;12.88;2.72;;;;;;;16.16;79.78;102310.56;6180537;23;20075;-78
2021/08/29 06:20:18;;;;;;;12.48;2.80;;;;;;;16.13;80.50;102315.81;6182176;23;20005;-82
2021/08/29 06:22:43;;;;;;;15.52;3.08;;;;;;;16.15;80.46;102319.38;6180922;23;20027;-79
2021/08/29 06:25:09;;;;;;;12.25;3.17;;;;;;;16.23;79.98;102310.69;6181922;23;20011;-82
2021/08/29 06:27:34;;;;;;;14.48;3.20;;;;;;;16.22;80.56;102316.84;6183717;23;20033;-81
2021/08/29 06:30:00;;;;;;;7.50;3.20;;;;;;;16.23;80.85;102318.66;6184015;23;20308;-83
2021/08/29 06:32:25;;;;;;;19.58;3.17;;;;;;;16.26;80.68;102316.91;6182795;23;20143;-81
2021/08/29 06:34:58;;;;;;;11.85;2.90;;;;;;;16.33;80.14;102323.22;6183141;23;20413;-80
2021/08/29 06:37:24;;;;;;;14.95;2.83;;;;;;;16.37;80.86;102324.19;6184623;23;20017;-82
2021/08/29 06:39:49;;;;;;;7.57;2.50;;;;;;;16.36;80.28;102317.97;6183074;23;20376;-82
2021/08/29 06:42:15;;;;;;;18.15;2.83;;;;;;;16.41;79.94;102315.38;6158148;23;20491;-80
2021/08/29 06:44:40;;;;;;;7.68;2.38;;;;;;;16.37;79.75;102311.78;6183143;23;20005;-78
2021/08/29 06:47:06;;;;;;;14.18;3.10;;;;;;;16.40;80.06;102317.16;6184557;23;20001;-77
2021/08/29 06:49:31;;;;;;;10.73;2.75;;;;;;;16.39;80.25;102318.03;6183731;23;19997;-79
2021/08/29 06:51:57;;;;;;;14.77;3.33;;;;;;;16.47;79.70;102321.69;6183778;23;20016;-82
2021/08/29 06:54:22;;;;;;;14.50;2.20;;;;;;;16.49;79.95;102314.66;6182349;23;20084;-80
2021/08/29 06:56:47;;;;;;;13.70;3.17;;;;;;;16.57;80.15;102317.41;6184361;23;20032;-81
2021/08/29 06:59:13;;;;;;;10.60;3.13;;;;;;;16.57;79.25;102316.53;6182683;23;20001;-84
2021/08/29 07:01:38;;;;;;;11.13;3.00;;;;;;;16.55;78.88;102305.88;6154660;23;20009;-82
2021/08/29 07:04:04;;;;;;;16.15;2.53;;;;;;;16.49;79.75;102317.31;6182281;23;20005;-79
2021/08/29 07:06:29;;;;;;;12.27;3.00;;;;;;;16.44;79.67;102311.03;6185209;23;20008;-83
2021/08/29 07:08:55;;;;;;;11.93;2.53;;;;;;;16.41;80.25;102320.69;6184601;23;20008;-80
2021/08/29 07:11:20;;;;;;;15.05;2.75;;;;;;;16.43;79.86;102303.91;6187007;23;20013;-81
2021/08/29 07:13:46;;;;;;;11.70;2.80;;;;;;;16.49;79.46;102306.69;6184266;23;20017;-81
2021/08/29 07:16:11;;;;;;;9.02;2.35;;;;;;;16.59;79.76;102304.16;6184529;23;20084;-77
2021/08/29 07:18:37;;;;;;;19.10;3.30;;;;;;;16.68;79.68;102304.28;6183706;23;20420;-79
2021/08/29 07:21:02;;;;;;;13.38;2.60;;;;;;;16.83;78.29;102299.22;6184806;23;20008;-81
2021/08/29 07:23:29;;;;;;;13.75;2.45;;;;;;;16.95;77.78;102297.63;6183297;23;20111;-79
2021/08/29 07:25:55;;;;;;;11.80;2.53;;;;;;;17.16;76.89;102291.69;6176787;23;20036;-79
2021/08/29 07:28:21;;;;;;;9.43;2.03;;;;;;;17.21;76.98;102297.94;6183978;23;20360;-80
2021/08/29 07:30:46;;;;;;;12.30;2.65;;;;;;;17.32;76.90;102298.97;6158198;23;20001;-76
2021/08/29 07:33:12;;;;;;;7.70;2.10;;;;;;;17.29;76.79;102290.94;6183140;23;20351;-82
2021/08/29 07:35:37;;;;;;;12.65;2.72;;;;;;;17.34;77.30;102304.31;6183800;23;20040;-80
2021/08/29 07:38:04;;;;;;;13.57;2.53;;;;;;;17.43;76.04;102298.19;6154722;23;20310;-78
2021/08/29 07:40:30;;;;;;;13.23;2.63;;;;;;;17.42;76.74;102299.09;6180810;23;20009;-82
2021/08/29 07:42:56;;;;;;;10.35;2.72;;;;;;;17.43;76.56;102301.78;6181360;23;20016;-76
2021/08/29 07:45:44;;;;;;;9.95;2.78;;;;;;;17.45;76.19;102293.78;6180154;23;20039;-76
2021/08/29 07:48:09;;;;;;;8.00;2.22;;;;;;;17.41;76.56;102290.19;6180738;23;20012;-79
2021/08/29 07:50:35;;;;;;;12.15;2.70;;;;;;;17.33;76.84;102294.53;6183098;23;20384;-79
2021/08/29 07:53:00;;;;;;;12.93;2.97;;;;;;;17.42;76.82;102288.44;6183244;23;20556;-80
2021/08/29 07:55:34;;;;;;;15.98;3.40;;;;;;;17.34;76.80;102283.03;6181369;23;20045;-79
2021/08/29 07:58:00;;;;;;;9.27;1.95;;;;;;;17.27;77.18;102292.72;6181758;23;20092;-79
2021/08/29 08:00:26;;;;;;;11.48;2.65;;;;;;;17.28;76.91;102285.59;6176944;23;20041;-76
2021/08/29 08:02:51;;;;;;;9.30;2.58;;;;;;;17.29;77.90;102279.41;6155596;23;20092;-81
2021/08/29 08:05:17;;;;;;;14.00;2.80;;;;;;;17.25;77.97;102286.47;6179702;23;20009;-75
2021/08/29 08:07:43;;;;;;;15.07;3.33;;;;;;;17.28;78.35;102288.25;6179228;23;20092;-82
2021/08/29 08:10:13;;;;;;;14.18;2.85;;;;;;;17.33;77.54;102286.56;6180101;23;20036;-79
2021/08/29 08:12:39;;;;;;;9.30;2.33;;;;;;;17.39;77.33;102289.31;6181533;23;20016;-80
2021/08/29 08:15:05;;;;;;;9.73;2.53;;;;;;;17.32;77.54;102284.75;6182853;23;20005;-85
2021/08/29 08:17:31;;;;;;;22.17;3.53;;;;;;;17.32;77.42;102292.75;6182385;23;20013;-81
2021/08/29 08:19:56;;;;;;;11.57;2.90;;;;;;;17.35;77.07;102296.34;6182692;23;20310;-81
2021/08/29 08:22:21;;;;;;;12.90;3.05;;;;;;;17.43;77.16;102292.88;6183049;23;20001;-81
2021/08/29 08:24:48;;;;;;;11.20;2.60;;;;;;;17.35;77.47;102295.47;6182735;23;20012;-78
2021/08/29 08:27:13;;;;;;;14.18;3.10;;;;;;;17.48;78.00;102300.03;6181948;23;20075;-80
2021/08/29 08:29:39;;;;;;;13.77;2.80;;;;;;;17.41;76.32;102291.97;6182566;23;20043;-84
2021/08/29 08:32:04;;;;;;;14.75;2.83;;;;;;;17.36;77.14;102290.16;6182413;23;20005;-83
2021/08/29 08:34:30;;;;;;;14.10;2.42;;;;;;;17.33;77.01;102292.75;6181418;23;20440;-76
2021/08/29 08:36:56;;;;;;;11.70;2.65;;;;;;;17.31;76.75;102294.53;6182081;23;20300;-79
2021/08/29 08:39:21;;;;;;;9.45;2.42;;;;;;;17.41;76.80;102295.53;6182180;23;20084;-80
2021/08/29 08:41:48;;;;;;;18.48;3.30;;;;;;;17.57;76.80;102301.03;6182212;23;20371;-83
2021/08/29 08:44:18;;;;;;;14.13;3.10;;;;;;;17.62;78.50;102301.94;6182088;23;20381;-77
2021/08/29 08:46:45;;;;;;;14.45;3.22;;;;;;;17.65;77.83;102307.31;6182898;23;20009;-78
2021/08/29 08:49:11;;;;;;;19.25;3.00;;;;;;;17.53;76.90;102286.78;6182461;23;20012;-83
2021/08/29 08:51:43;;;;;;;14.63;3.05;;;;;;;17.48;75.85;102292.03;6183384;23;20017;-80
2021/08/29 08:54:10;;;;;;;11.63;2.95;;;;;;;17.48;76.25;102294.69;6182197;23;20013;-79
2021/08/29 08:56:37;;;;;;;12.27;3.05;;;;;;;17.52;76.39;102295.63;6182220;23;20007;-79
2021/08/29 08:59:05;;;;;;;18.60;3.78;;;;;;;17.58;76.36;102301.03;6182502;23;20001;-80
2021/08/29 09:01:32;;;;;;;16.65;3.13;;;;;;;17.61;76.89;102301.06;6178234;23;20013;-82
2021/08/29 09:03:58;;;;;;;16.00;3.30;;;;;;;17.70;76.44;102292.28;6181046;23;20015;-82
2021/08/29 09:06:24;;;;;;;10.52;2.80;;;;;;;17.71;75.84;102302.06;6182071;23;20009;-81
2021/08/29 09:09:09;;;;;;;15.23;3.38;;;;;;;17.74;75.85;102288.75;6183038;23;20005;-78
2021/08/29 09:11:35;;;;;;;14.82;2.95;;;;;;;17.69;77.04;102293.19;6181715;23;20005;-84
2021/08/29 09:14:01;;;;;;;11.48;2.90;;;;;;;17.77;75.90;102294.13;6181271;23;20340;-80
2021/08/29 09:16:29;;;;;;;12.93;3.35;;;;;;;17.84;75.61;102295.97;6182822;23;20535;-78
2021/08/29 09:19:17;;;;;;;13.82;3.08;;;;;;;17.87;76.71;102303.97;6183422;23;20028;-78
2021/08/29 09:21:42;;;;;;;15.70;3.58;;;;;;;17.75;76.44;102295.88;6183670;23;20092;-79
2021/08/29 09:24:12;;;;;;;15.27;3.00;;;;;;;17.75;76.04;102298.53;6185132;23;20001;-81
2021/08/29 09:27:01;;;;;;;10.70;2.55;;;;;;;17.66;76.17;102293.13;6184610;23;20021;-83
2021/08/29 09:29:27;;;;;;;15.65;3.08;;;;;;;17.62;75.99;102300.19;6184034;23;20020;-84
2021/08/29 09:31:56;;;;;;;15.43;3.33;;;;;;;17.51;75.20;102299.16;6182774;23;20005;-79
2021/08/29 09:34:23;;;;;;;10.20;2.65;;;;;;;17.56;75.46;102297.47;6181749;23;20009;-81
2021/08/29 09:36:51;;;;;;;19.05;3.17;;;;;;;17.58;75.65;102292.16;6180735;23;20337;-81
2021/08/29 09:39:36;;;;;;;19.05;3.30;;;;;;;17.65;75.97;102294.03;6181467;23;20009;-77
2021/08/29 09:42:03;;;;;;;9.43;2.72;;;;;;;17.57;76.03;102299.25;6181071;23;20013;-79
2021/08/29 09:44:58;;;;;;;16.08;3.08;;;;;;;17.47;75.72;102300.94;6182254;23;20158;-80
2021/08/29 09:47:29;;;;;;;16.73;3.08;;;;;;;17.49;74.98;102291.19;6183083;23;20005;-80
2021/08/29 09:49:58;;;;;;;12.80;3.25;;;;;;;17.43;75.26;102291.13;6182650;23;20013;-80
2021/08/29 09:52:27;;;;;;;9.40;3.70;;;;;;;17.45;74.87;102286.69;6182321;23;20084;-81
2021/08/29 09:54:55;;;;;;;15.35;2.53;;;;;;;17.51;75.73;102294.75;6182966;23;20071;-81
2021/08/29 09:57:20;;;;;;;13.85;2.47;;;;;;;17.56;75.42;102296.56;6181217;23;20028;-81
2021/08/29 09:59:47;;;;;;;15.70;2.78;;;;;;;17.56;75.24;102300.13;6182661;23;20324;-80
2021/08/29 10:02:37;;;;;;;21.20;3.22;;;;;;;17.44;75.23;102298.22;6181050;23;20009;-79
2021/08/29 10:05:13;;;;;;;16.52;2.55;;;;;;;17.42;75.29;102289.31;6184225;23;20075;-85
2021/08/29 10:07:56;;;;;;;15.48;2.67;;;;;;;17.47;75.56;102289.38;6184909;23;20384;-84
2021/08/29 10:10:24;;;;;;;14.27;2.97;;;;;;;17.52;76.80;102291.19;6186181;23;20028;-87
2021/08/29 10:13:29;;;;;;;15.88;3.00;;;;;;;17.66;75.29;102285.13;6184625;23;20044;-85
2021/08/29 10:15:55;;;;;;;8.55;2.58;;;;;;;17.75;73.82;102274.59;6187912;23;20429;-81
2021/08/29 10:18:21;;;;;;;14.38;2.90;;;;;;;17.81;74.92;102265.75;6184853;23;20055;-78
2021/08/29 10:20:48;;;;;;;10.95;2.50;;;;;;;17.94;74.60;102274.78;6183541;23;20127;-80
2021/08/29 10:23:24;;;;;;;13.50;2.72;;;;;;;17.99;73.37;102278.41;6184368;23;20005;-77
2021/08/29 10:25:53;;;;;;;12.85;2.40;;;;;;;18.03;73.13;102256.25;6185202;23;20024;-78
2021/08/29 10:28:25;;;;;;;16.45;2.60;;;;;;;18.07;73.11;102263.38;6186134;23;20020;-80
2021/08/29 10:30:55;;;;;;;18.10;3.10;;;;;;;18.04;75.32;102260.66;6162098;23;20028;-81
2021/08/29 10:33:22;;;;;;;10.82;2.67;;;;;;;18.08;74.55;102264.25;6181770;23;20017;-84
2021/08/29 10:35:49;;;;;;;13.80;3.10;;;;;;;17.94;74.80;102272.13;6184720;23;20059;-81
2021/08/29 10:38:16;;;;;;;13.02;2.83;;;;;;;17.76;75.08;102268.38;6185854;23;20024;-79
2021/08/29 10:41:02;;;;;;;11.38;2.70;;;;;;;17.51;75.93;102265.47;6185966;23;20008;-84
2021/08/29 10:43:28;;;;;;;17.95;2.58;;;;;;;17.51;75.80;102268.16;6183529;23;20016;-79
2021/08/29 10:45:54;;;;;;;10.98;2.60;;;;;;;17.49;76.06;102269.88;6185674;23;20111;-78
2021/08/29 10:48:40;;;;;;;12.43;3.13;;;;;;;17.48;75.82;102257.44;6183392;23;20461;-85
2021/08/29 10:51:27;;;;;;;16.63;2.88;;;;;;;17.52;76.47;102264.59;6184231;23;20011;-79
2021/08/29 10:54:13;;;;;;;14.70;2.72;;;;;;;17.56;76.30;102272.63;6183997;23;20020;-80
2021/08/29 10:56:40;;;;;;;10.60;3.03;;;;;;;17.53;77.73;102270.81;6184498;23;20510;-82
2021/08/29 10:59:09;;;;;;;15.88;3.35;;;;;;;17.57;77.98;102267.31;6184157;23;20012;-84
2021/08/29 11:01:34;;;;;;;12.45;2.50;;;;;;;17.45;77.62;102262.75;6180270;23;20024;-85
2021/08/29 11:04:20;;;;;;;19.35;3.10;;;;;;;17.29;79.63;102276.75;6184166;23;20005;-83
2021/08/29 11:07:06;;;;;;;18.60;2.97;;;;;;;17.24;79.57;102268.72;6177997;23;20290;-84
2021/08/29 11:09:32;;;;;;;18.98;3.15;;;;;;;17.21;80.04;102275.78;6185608;23;20028;-86
2021/08/29 11:12:00;;;;;;;13.07;2.50;;;;;;;17.13;81.17;102270.34;6184040;23;20032;-85
2021/08/29 11:15:07;;;;;;;17.65;3.55;;;;;;;17.12;81.88;102260.56;6183401;23;20494;-84
2021/08/29 11:18:18;;;;;;;15.45;3.25;;;;;;;17.09;81.83;102261.47;6182569;23;20009;-82
2021/08/29 11:21:00;;;;;;;11.63;2.60;;;;;;;17.03;82.36;102258.72;6183375;23;20013;-81
2021/08/29 11:23:42;;;;;;;18.65;3.03;;;;;;;17.14;82.66;102259.72;6182316;23;20074;-78
2021/08/29 11:26:46;;;;;;;16.63;2.88;;;;;;;17.17;80.71;102259.78;6183817;23;20421;-83
2021/08/29 11:29:39;;;;;;;13.13;2.85;;;;;;;17.21;79.83;102257.16;6184217;23;20004;-80
2021/08/29 11:32:05;;;;;;;13.57;2.92;;;;;;;17.22;79.76;102264.28;6183667;23;20036;-82